createdAt,value
2019-03-22T00:00:36.496Z,7.80
2019-03-22T00:01:36.521Z,9.40
2019-03-22T00:02:36.546Z,10.00
2019-03-22T00:03:36.573Z,8.10
2019-03-22T00:04:36.598Z,11.30
2019-03-22T00:05:36.625Z,10.10
2019-03-22T00:06:36.649Z,8.30
2019-03-22T00:07:36.675Z,10.70
2019-03-22T00:08:36.701Z,8.10
2019-03-22T00:09:36.741Z,6.40
2019-03-22T00:10:36.752Z,5.40
2019-03-22T00:11:36.781Z,8.20
2019-03-22T00:12:36.807Z,8.00
2019-03-22T00:13:36.832Z,6.30
2019-03-22T00:14:37.244Z,6.80
2019-03-22T00:15:36.880Z,10.10
2019-03-22T00:16:36.907Z,13.30
2019-03-22T00:17:36.938Z,9.60
2019-03-22T00:18:36.957Z,7.30
2019-03-22T00:19:36.997Z,9.50
2019-03-22T00:20:37.009Z,9.70
2019-03-22T00:21:37.035Z,10.20
2019-03-22T00:22:37.060Z,7.80
2019-03-22T00:23:37.086Z,10.80
2019-03-22T00:24:37.111Z,9.00
2019-03-22T00:25:37.137Z,11.20
2019-03-22T00:26:37.163Z,17.70
2019-03-22T00:27:37.188Z,23.20
2019-03-22T00:28:37.214Z,18.20
2019-03-22T00:29:37.239Z,23.50
2019-03-22T00:30:37.265Z,34.60
2019-03-22T00:31:37.291Z,23.00
2019-03-22T00:32:37.317Z,28.70
2019-03-22T00:33:37.348Z,32.20
2019-03-22T00:34:37.368Z,31.60
2019-03-22T00:35:37.393Z,33.80
2019-03-22T00:36:37.418Z,34.80
2019-03-22T00:37:37.445Z,34.80
2019-03-22T00:38:37.469Z,36.50
2019-03-22T00:39:37.495Z,34.80
2019-03-22T00:40:37.520Z,17.10
2019-03-22T00:41:37.547Z,11.10
2019-03-22T00:42:37.570Z,13.40
2019-03-22T00:43:37.596Z,11.00
2019-03-22T00:44:37.623Z,10.00
2019-03-22T00:45:37.650Z,9.80
2019-03-22T00:46:37.673Z,9.80
2019-03-22T00:47:37.699Z,9.70
2019-03-22T00:48:37.725Z,13.40
2019-03-22T00:49:37.751Z,16.20
2019-03-22T00:50:37.775Z,8.50
2019-03-22T00:51:37.802Z,10.70
2019-03-22T00:52:37.827Z,9.70
2019-03-22T00:53:37.853Z,10.70
2019-03-22T00:54:37.878Z,7.70
2019-03-22T00:55:37.910Z,10.90
2019-03-22T00:56:37.928Z,9.40
2019-03-22T00:57:37.958Z,12.40
2019-03-22T00:58:37.978Z,9.00
2019-03-22T00:59:38.006Z,12.70
2019-03-22T01:00:38.030Z,9.30
2019-03-22T01:01:38.058Z,9.90
2019-03-22T01:02:38.080Z,10.00
2019-03-22T01:03:38.107Z,10.10
2019-03-22T01:04:38.131Z,10.00
2019-03-22T01:05:38.158Z,7.90
2019-03-22T01:06:38.187Z,12.90
2019-03-22T01:07:38.211Z,9.60
2019-03-22T01:08:38.235Z,9.50
2019-03-22T01:09:38.258Z,7.70
2019-03-22T01:10:38.284Z,9.20
2019-03-22T01:11:38.309Z,10.70
2019-03-22T01:12:38.334Z,9.80
2019-03-22T01:13:38.359Z,9.90
2019-03-22T01:14:38.429Z,11.20
2019-03-22T01:15:38.411Z,12.80
2019-03-22T01:16:38.437Z,9.00
2019-03-22T01:17:38.461Z,9.50
2019-03-22T01:18:38.488Z,9.70
2019-03-22T01:19:38.511Z,9.30
2019-03-22T01:20:38.537Z,9.20
2019-03-22T01:21:38.563Z,12.40
2019-03-22T01:22:38.590Z,9.90
2019-03-22T01:23:38.613Z,8.90
2019-03-22T01:24:38.638Z,9.40
2019-03-22T01:25:38.665Z,17.10
2019-03-22T01:26:38.691Z,8.70
2019-03-22T01:27:40.701Z,11.40
2019-03-22T01:28:38.741Z,11.00
2019-03-22T01:29:38.765Z,10.10
2019-03-22T01:30:38.790Z,12.10
2019-03-22T01:31:38.817Z,13.50
2019-03-22T01:32:38.842Z,11.00
2019-03-22T01:33:38.867Z,8.90
2019-03-22T01:34:38.892Z,8.60
2019-03-22T01:35:38.917Z,9.60
2019-03-22T01:36:38.943Z,9.60
2019-03-22T01:37:38.968Z,10.70
2019-03-22T01:38:38.992Z,9.10
2019-03-22T01:39:39.019Z,10.30
2019-03-22T01:40:39.043Z,9.00
2019-03-22T01:41:39.071Z,11.40
2019-03-22T01:42:39.094Z,10.50
2019-03-22T01:43:39.119Z,13.90
2019-03-22T01:44:39.145Z,8.70
2019-03-22T01:45:39.170Z,11.70
2019-03-22T01:46:39.194Z,10.90
2019-03-22T01:47:39.219Z,9.70
2019-03-22T01:48:39.247Z,9.40
2019-03-22T01:49:39.271Z,8.60
2019-03-22T01:50:39.294Z,11.10
2019-03-22T01:51:39.322Z,16.10
2019-03-22T01:52:39.346Z,10.30
2019-03-22T01:53:39.372Z,8.80
2019-03-22T01:54:39.401Z,10.50
2019-03-22T01:55:39.421Z,9.30
2019-03-22T01:56:39.447Z,8.50
2019-03-22T01:57:39.473Z,10.80
2019-03-22T01:58:39.496Z,8.00
2019-03-22T01:59:39.523Z,10.50
2019-03-22T02:00:39.549Z,8.60
2019-03-22T02:01:39.573Z,12.10
2019-03-22T02:02:39.598Z,9.00
2019-03-22T02:03:39.623Z,10.10
2019-03-22T02:04:39.649Z,11.10
2019-03-22T02:05:39.674Z,9.40
2019-03-22T02:06:39.699Z,9.80
2019-03-22T02:07:39.724Z,10.30
2019-03-22T02:08:39.748Z,13.40
2019-03-22T02:09:39.775Z,13.70
2019-03-22T02:10:39.801Z,12.90
2019-03-22T02:11:39.825Z,9.80
2019-03-22T02:12:39.852Z,13.20
2019-03-22T02:13:39.878Z,8.90
2019-03-22T02:14:39.901Z,10.80
2019-03-22T02:15:39.928Z,11.50
2019-03-22T02:16:39.954Z,12.00
2019-03-22T02:17:39.978Z,10.20
2019-03-22T02:18:40.003Z,12.80
2019-03-22T02:19:40.029Z,13.00
2019-03-22T02:20:40.055Z,12.80
2019-03-22T02:21:40.082Z,13.90
2019-03-22T02:22:40.310Z,9.70
2019-03-22T02:27:40.646Z,9.50
2019-03-22T02:28:40.258Z,10.10
2019-03-22T02:29:40.284Z,9.30
2019-03-22T02:30:40.320Z,9.90
2019-03-22T02:31:40.342Z,11.40
2019-03-22T02:32:40.368Z,11.30
2019-03-22T02:33:40.396Z,12.40
2019-03-22T02:34:40.416Z,10.10
2019-03-22T02:35:40.439Z,11.00
2019-03-22T02:36:40.463Z,11.50
2019-03-22T02:37:40.489Z,10.40
2019-03-22T02:38:40.516Z,14.60
2019-03-22T02:39:40.727Z,14.70
2019-03-22T02:40:40.565Z,10.50
2019-03-22T02:41:40.592Z,9.70
2019-03-22T02:42:40.622Z,12.90
2019-03-22T02:43:40.643Z,10.20
2019-03-22T02:44:40.674Z,7.90
2019-03-22T02:45:40.694Z,8.20
2019-03-22T02:46:40.734Z,10.70
2019-03-22T02:47:40.746Z,9.90
2019-03-22T02:48:40.771Z,9.10
2019-03-22T02:49:40.797Z,12.20
2019-03-22T02:50:40.822Z,9.40
2019-03-22T02:51:40.850Z,12.20
2019-03-22T02:52:40.872Z,9.20
2019-03-22T02:53:40.899Z,8.70
2019-03-22T02:54:40.924Z,12.60
2019-03-22T02:55:40.963Z,9.00
2019-03-22T02:56:40.977Z,10.30
2019-03-22T02:57:41.002Z,11.10
2019-03-22T02:58:41.028Z,12.20
2019-03-22T02:59:41.056Z,12.70
2019-03-22T03:00:41.084Z,9.70
2019-03-22T03:01:41.104Z,11.10
2019-03-22T03:02:41.129Z,10.80
2019-03-22T03:03:41.156Z,11.00
2019-03-22T03:04:41.179Z,13.00
2019-03-22T03:05:41.228Z,11.10
2019-03-22T03:06:41.232Z,13.70
2019-03-22T03:07:41.263Z,12.40
2019-03-22T03:08:41.287Z,10.70
2019-03-22T03:09:41.308Z,8.80
2019-03-22T03:10:41.331Z,11.60
2019-03-22T03:11:41.361Z,9.10
2019-03-22T03:12:41.414Z,11.10
2019-03-22T03:13:41.409Z,11.00
2019-03-22T03:14:41.433Z,14.00
2019-03-22T03:15:41.459Z,14.60
2019-03-22T03:16:41.485Z,10.90
2019-03-22T03:17:41.608Z,10.80
2019-03-22T03:18:41.535Z,13.50
2019-03-22T03:19:41.562Z,8.70
2019-03-22T03:20:41.586Z,9.10
2019-03-22T03:21:41.624Z,8.00
2019-03-22T03:22:41.636Z,8.90
2019-03-22T03:23:41.663Z,9.30
2019-03-22T03:24:41.719Z,10.20
2019-03-22T03:25:41.714Z,9.40
2019-03-22T03:26:41.739Z,9.90
2019-03-22T03:27:41.765Z,8.50
2019-03-22T03:28:41.793Z,9.00
2019-03-22T03:29:41.813Z,8.60
2019-03-22T03:30:41.839Z,8.30
2019-03-22T03:31:41.866Z,9.20
2019-03-22T03:32:41.925Z,8.50
2019-03-22T03:33:41.942Z,8.40
2019-03-22T03:34:41.940Z,7.80
2019-03-22T03:35:41.965Z,10.00
2019-03-22T03:36:41.991Z,10.70
2019-03-22T03:37:42.017Z,8.10
2019-03-22T03:38:42.044Z,9.30
2019-03-22T03:39:42.067Z,10.80
2019-03-22T03:40:42.091Z,8.90
2019-03-22T03:41:42.123Z,11.50
2019-03-22T03:42:42.151Z,8.80
2019-03-22T03:43:42.248Z,9.00
2019-03-22T03:44:42.192Z,8.50
2019-03-22T03:45:42.218Z,8.60
2019-03-22T03:46:42.318Z,8.10
2019-03-22T03:47:42.270Z,8.90
2019-03-22T03:48:42.300Z,10.40
2019-03-22T03:49:42.336Z,8.30
2019-03-22T03:50:42.346Z,8.30
2019-03-22T03:51:42.477Z,8.70
2019-03-22T03:52:42.399Z,9.90
2019-03-22T03:53:42.425Z,11.70
2019-03-22T03:54:42.447Z,8.80
2019-03-22T03:55:42.473Z,10.90
2019-03-22T03:56:42.497Z,12.50
2019-03-22T03:57:42.524Z,9.90
2019-03-22T03:58:52.186Z,11.70
2019-03-22T03:59:42.575Z,10.90
2019-03-22T04:00:42.607Z,9.10
2019-03-22T04:01:42.625Z,9.60
2019-03-22T04:02:42.648Z,13.30
2019-03-22T04:03:42.677Z,11.80
2019-03-22T04:04:42.709Z,12.50
2019-03-22T04:05:42.726Z,13.30
2019-03-22T04:06:42.766Z,9.40
2019-03-22T04:07:42.778Z,12.20
2019-03-22T04:08:42.803Z,10.40
2019-03-22T04:09:42.830Z,11.40
2019-03-22T04:10:42.854Z,8.30
2019-03-22T04:11:42.880Z,13.30
2019-03-22T04:12:42.905Z,11.10
2019-03-22T04:13:44.984Z,13.20
2019-03-22T04:14:42.954Z,8.20
2019-03-22T04:15:42.981Z,8.40
2019-03-22T04:16:43.158Z,10.10
2019-03-22T04:17:43.032Z,10.00
2019-03-22T04:18:43.063Z,14.00
2019-03-22T04:19:43.083Z,11.30
2019-03-22T04:20:43.108Z,9.30
2019-03-22T04:21:43.136Z,12.50
2019-03-22T04:22:43.166Z,14.20
2019-03-22T04:23:43.185Z,8.70
2019-03-22T04:24:43.209Z,9.70
2019-03-22T04:25:43.236Z,8.70
2019-03-22T04:26:43.266Z,9.50
2019-03-22T04:27:43.289Z,11.20
2019-03-22T04:28:43.313Z,9.10
2019-03-22T04:29:43.343Z,9.10
2019-03-22T04:30:43.368Z,10.10
2019-03-22T04:31:43.387Z,7.90
2019-03-22T04:32:43.412Z,12.70
2019-03-22T04:33:43.445Z,13.50
2019-03-22T04:34:43.463Z,13.30
2019-03-22T04:35:43.491Z,9.80
2019-03-22T04:36:43.528Z,10.30
2019-03-22T04:37:43.541Z,8.60
2019-03-22T04:38:43.565Z,10.30
2019-03-22T04:39:43.590Z,8.70
2019-03-22T04:40:43.622Z,12.30
2019-03-22T04:41:43.654Z,9.00
2019-03-22T04:42:43.667Z,10.50
2019-03-22T04:43:43.693Z,9.70
2019-03-22T04:44:43.719Z,11.40
2019-03-22T04:45:43.742Z,9.40
2019-03-22T04:46:43.771Z,12.40
2019-03-22T04:47:45.961Z,11.40
2019-03-22T04:48:43.819Z,10.30
2019-03-22T04:49:43.845Z,10.00
2019-03-22T04:50:43.870Z,12.80
2019-03-22T04:51:43.894Z,10.60
2019-03-22T04:52:43.920Z,9.90
2019-03-22T04:53:43.946Z,10.50
2019-03-22T04:54:43.971Z,10.60
2019-03-22T04:55:43.995Z,11.50
2019-03-22T04:56:44.022Z,9.80
2019-03-22T04:57:44.046Z,10.80
2019-03-22T04:58:46.599Z,11.60
2019-03-22T04:59:44.097Z,9.40
2019-03-22T05:00:44.122Z,10.90
2019-03-22T05:01:44.153Z,11.90
2019-03-22T05:02:44.173Z,10.60
2019-03-22T05:03:44.264Z,9.90
2019-03-22T05:04:44.224Z,9.90
2019-03-22T05:05:44.249Z,11.30
2019-03-22T05:06:44.273Z,9.50
2019-03-22T05:07:44.300Z,10.10
2019-03-22T05:08:44.325Z,10.70
2019-03-22T05:09:44.387Z,10.00
2019-03-22T05:10:44.375Z,10.70
2019-03-22T05:11:44.401Z,13.30
2019-03-22T05:12:44.426Z,12.00
2019-03-22T05:13:44.451Z,11.20
2019-03-22T05:14:44.476Z,9.10
2019-03-22T05:15:44.502Z,13.00
2019-03-22T05:16:44.530Z,11.20
2019-03-22T05:17:44.552Z,10.20
2019-03-22T05:18:44.583Z,11.00
2019-03-22T05:19:44.603Z,15.20
2019-03-22T05:20:44.629Z,13.60
2019-03-22T05:21:44.654Z,16.40
2019-03-22T05:22:44.678Z,10.20
2019-03-22T05:23:44.703Z,9.50
2019-03-22T05:24:44.729Z,11.60
2019-03-22T05:25:44.755Z,12.30
2019-03-22T05:26:44.780Z,10.00
2019-03-22T05:27:44.809Z,12.10
2019-03-22T05:28:44.831Z,10.20
2019-03-22T05:29:44.856Z,9.50
2019-03-22T05:30:44.883Z,9.50
2019-03-22T05:31:44.906Z,12.70
2019-03-22T05:32:44.931Z,10.80
2019-03-22T05:33:44.959Z,10.10
2019-03-22T05:34:44.982Z,9.10
2019-03-22T05:35:45.007Z,9.50
2019-03-22T05:36:45.056Z,14.80
2019-03-22T05:37:45.059Z,10.10
2019-03-22T05:38:45.088Z,9.90
2019-03-22T05:39:45.109Z,9.70
2019-03-22T05:40:45.135Z,11.10
2019-03-22T05:41:45.159Z,9.80
2019-03-22T05:42:45.183Z,15.00
2019-03-22T05:43:45.210Z,9.50
2019-03-22T05:44:45.237Z,9.40
2019-03-22T05:45:45.261Z,12.30
2019-03-22T05:46:45.285Z,13.80
2019-03-22T05:47:45.312Z,10.70
2019-03-22T05:48:45.337Z,13.50
2019-03-22T05:49:45.363Z,13.50
2019-03-22T05:50:45.386Z,10.50
2019-03-22T05:51:45.413Z,11.30
2019-03-22T05:52:45.437Z,10.50
2019-03-22T05:53:45.464Z,10.60
2019-03-22T05:54:45.489Z,14.40
2019-03-22T05:55:45.514Z,12.60
2019-03-22T05:56:45.538Z,13.90
2019-03-22T05:57:45.564Z,11.90
2019-03-22T05:58:45.589Z,11.90
2019-03-22T05:59:45.614Z,12.90
2019-03-22T06:00:45.644Z,12.20
2019-03-22T06:01:45.670Z,9.20
2019-03-22T06:02:45.689Z,12.70
2019-03-22T06:03:45.715Z,10.90
2019-03-22T06:04:45.741Z,10.70
2019-03-22T06:05:45.768Z,10.00
2019-03-22T06:06:45.792Z,11.10
2019-03-22T06:07:45.823Z,13.00
2019-03-22T06:08:45.842Z,12.30
2019-03-22T06:09:45.867Z,12.00
2019-03-22T06:10:45.891Z,11.10
2019-03-22T06:11:45.917Z,13.00
2019-03-22T06:12:45.943Z,12.40
2019-03-22T06:13:45.970Z,12.10
2019-03-22T06:14:45.992Z,11.60
2019-03-22T06:15:46.017Z,11.90
2019-03-22T06:16:46.046Z,11.30
2019-03-22T06:17:51.728Z,14.20
2019-03-22T06:18:46.098Z,14.20
2019-03-22T06:19:46.119Z,14.10
2019-03-22T06:20:46.144Z,17.50
2019-03-22T06:21:46.169Z,12.00
2019-03-22T06:22:46.196Z,12.30
2019-03-22T06:23:46.224Z,14.90
2019-03-22T06:24:46.245Z,13.50
2019-03-22T06:25:46.271Z,18.20
2019-03-22T06:26:46.296Z,12.80
2019-03-22T06:27:46.321Z,11.30
2019-03-22T06:28:46.350Z,11.80
2019-03-22T06:29:54.085Z,15.40
2019-03-22T06:30:46.397Z,21.00
2019-03-22T06:31:46.426Z,12.50
2019-03-22T06:32:46.449Z,13.50
2019-03-22T06:33:46.474Z,12.60
2019-03-22T06:34:46.499Z,14.40
2019-03-22T06:35:46.526Z,16.30
2019-03-22T06:36:46.552Z,18.50
2019-03-22T06:37:46.578Z,17.80
2019-03-22T06:38:46.601Z,21.20
2019-03-22T06:39:46.629Z,21.00
2019-03-22T06:40:46.653Z,18.40
2019-03-22T06:41:46.679Z,18.40
2019-03-22T06:42:46.704Z,20.50
2019-03-22T06:43:46.730Z,25.50
2019-03-22T06:44:46.756Z,24.50
2019-03-22T06:45:46.782Z,26.30
2019-03-22T06:46:46.809Z,23.60
2019-03-22T06:47:46.833Z,23.50
2019-03-22T06:48:46.859Z,19.30
2019-03-22T06:49:46.886Z,17.10
2019-03-22T06:50:46.910Z,17.70
2019-03-22T06:51:46.936Z,19.50
2019-03-22T06:52:46.962Z,36.30
2019-03-22T06:53:46.988Z,19.70
2019-03-22T06:54:47.016Z,19.90
2019-03-22T06:55:47.040Z,16.50
2019-03-22T06:56:47.065Z,13.00
2019-03-22T06:57:47.092Z,24.60
2019-03-22T06:58:47.117Z,17.40
2019-03-22T06:59:47.146Z,24.30
2019-03-22T07:00:47.169Z,21.60
2019-03-22T07:01:47.195Z,19.50
2019-03-22T07:02:47.222Z,17.00
2019-03-22T07:03:47.251Z,15.00
2019-03-22T07:04:47.278Z,16.60
2019-03-22T07:05:47.302Z,23.00
2019-03-22T07:06:47.326Z,16.00
2019-03-22T07:07:47.355Z,17.70
2019-03-22T07:08:47.381Z,15.50
2019-03-22T07:09:47.406Z,11.80
2019-03-22T07:10:47.433Z,13.20
2019-03-22T07:11:47.458Z,16.20
2019-03-22T07:12:47.485Z,13.90
2019-03-22T07:13:47.512Z,12.00
2019-03-22T07:14:47.538Z,12.10
2019-03-22T07:15:47.570Z,15.60
2019-03-22T07:16:47.592Z,14.60
2019-03-22T07:17:47.619Z,15.40
2019-03-22T07:18:47.645Z,12.40
2019-03-22T07:19:47.673Z,17.50
2019-03-22T07:20:47.699Z,13.10
2019-03-22T07:21:47.728Z,17.30
2019-03-22T07:22:47.753Z,17.80
2019-03-22T07:23:47.779Z,13.70
2019-03-22T07:24:47.807Z,12.00
2019-03-22T07:25:47.834Z,12.60
2019-03-22T07:26:47.863Z,17.30
2019-03-22T07:27:47.888Z,12.30
2019-03-22T07:28:47.965Z,15.70
2019-03-22T07:29:47.942Z,14.50
2019-03-22T07:30:48.023Z,15.80
2019-03-22T07:31:47.997Z,11.70
2019-03-22T07:32:48.028Z,15.80
2019-03-22T07:33:48.052Z,17.30
2019-03-22T07:34:48.079Z,15.10
2019-03-22T07:35:48.106Z,12.20
2019-03-22T07:36:48.135Z,15.50
2019-03-22T07:37:48.186Z,15.50
2019-03-22T07:38:48.188Z,15.60
2019-03-22T07:39:48.217Z,14.70
2019-03-22T07:40:48.246Z,16.00
2019-03-22T07:41:48.292Z,14.90
2019-03-22T07:42:48.525Z,18.70
2019-03-22T07:43:48.610Z,13.00
2019-03-22T07:46:48.412Z,13.30
2019-03-22T07:47:48.439Z,15.00
2019-03-22T07:48:48.468Z,13.40
2019-03-22T07:49:48.495Z,15.90
2019-03-22T07:50:48.525Z,13.60
2019-03-22T07:51:48.551Z,17.10
2019-03-22T07:52:48.582Z,12.30
2019-03-22T07:53:49.239Z,18.10
2019-03-22T07:54:48.640Z,16.70
2019-03-22T07:55:48.665Z,13.20
2019-03-22T07:56:48.694Z,17.40
2019-03-22T07:57:48.723Z,13.50
2019-03-22T07:58:48.753Z,20.20
2019-03-22T07:59:48.782Z,11.60
2019-03-22T08:00:48.815Z,17.00
2019-03-22T08:01:48.838Z,11.90
2019-03-22T08:02:48.866Z,11.20
2019-03-22T08:03:48.895Z,25.80
2019-03-22T08:04:48.924Z,17.40
2019-03-22T08:05:51.450Z,15.30
2019-03-22T08:06:48.983Z,19.20
2019-03-22T08:07:49.013Z,11.70
2019-03-22T08:08:49.042Z,12.60
2019-03-22T08:09:51.262Z,16.80
2019-03-22T08:10:49.099Z,10.50
2019-03-22T08:11:49.135Z,10.80
2019-03-22T08:12:49.160Z,11.60
2019-03-22T08:13:49.249Z,9.70
2019-03-22T08:14:49.237Z,15.00
2019-03-22T08:15:49.249Z,12.40
2019-03-22T08:16:49.279Z,15.10
2019-03-22T08:17:49.310Z,10.80
2019-03-22T08:18:49.348Z,14.00
2019-03-22T08:19:49.369Z,11.10
2019-03-22T08:20:49.403Z,14.20
2019-03-22T08:21:49.431Z,11.80
2019-03-22T08:22:49.490Z,8.80
2019-03-22T08:23:49.491Z,9.30
2019-03-22T08:24:49.537Z,10.50
2019-03-22T08:25:49.562Z,10.00
2019-03-22T08:26:49.583Z,7.90
2019-03-22T08:27:49.613Z,11.00
2019-03-22T08:28:49.646Z,8.40
2019-03-22T08:29:49.679Z,10.60
2019-03-22T08:30:49.722Z,12.80
2019-03-22T08:31:49.745Z,8.30
2019-03-22T08:32:50.604Z,10.80
2019-03-22T08:33:49.805Z,10.80
2019-03-22T08:34:49.856Z,13.30
2019-03-22T08:35:49.860Z,9.40
2019-03-22T08:36:49.893Z,12.30
2019-03-22T08:37:52.831Z,10.70
2019-03-22T08:38:49.955Z,13.90
2019-03-22T08:39:49.985Z,13.80
2019-03-22T08:40:50.017Z,13.00
2019-03-22T08:41:50.049Z,16.70
2019-03-22T08:42:50.083Z,14.50
2019-03-22T08:43:50.133Z,14.50
2019-03-22T08:44:50.160Z,15.00
2019-03-22T08:45:50.402Z,13.80
2019-03-22T08:46:50.207Z,15.50
2019-03-22T08:47:50.235Z,19.40
2019-03-22T08:48:50.293Z,14.70
2019-03-22T08:49:50.475Z,10.70
2019-03-22T08:50:50.377Z,15.40
2019-03-22T08:51:50.365Z,11.90
2019-03-22T08:52:50.393Z,16.00
2019-03-22T08:53:55.381Z,12.00
2019-03-22T08:54:50.459Z,11.30
2019-03-22T08:55:50.489Z,14.50
2019-03-22T08:56:50.522Z,12.80
2019-03-22T08:57:50.573Z,13.50
2019-03-22T08:58:50.628Z,10.80
2019-03-22T08:59:50.661Z,12.10
2019-03-22T09:00:57.291Z,10.90
2019-03-22T09:01:50.694Z,12.80
2019-03-22T09:02:50.724Z,13.40
2019-03-22T09:03:50.763Z,15.60
2019-03-22T09:04:50.944Z,14.50
2019-03-22T09:05:50.826Z,15.20
2019-03-22T09:06:50.910Z,18.60
2019-03-22T09:07:50.926Z,13.70
2019-03-22T09:08:50.955Z,13.30
2019-03-22T09:09:51.222Z,13.40
2019-03-22T09:10:51.017Z,18.10
2019-03-22T09:11:51.059Z,12.80
2019-03-22T09:12:51.131Z,13.40
2019-03-22T09:13:53.677Z,16.40
2019-03-22T09:14:51.219Z,15.70
2019-03-22T09:15:51.229Z,15.10
2019-03-22T09:16:51.240Z,15.20
2019-03-22T09:17:51.290Z,13.20
2019-03-22T09:18:51.344Z,11.40
2019-03-22T09:19:51.361Z,14.80
2019-03-22T09:20:51.374Z,12.90
2019-03-22T09:21:51.427Z,13.40
2019-03-22T09:22:51.743Z,11.50
2019-03-22T09:23:51.489Z,13.80
2019-03-22T09:24:51.571Z,16.50
2019-03-22T09:25:51.591Z,12.90
2019-03-22T09:26:51.645Z,11.80
2019-03-22T09:27:51.646Z,12.30
2019-03-22T09:28:51.685Z,11.70
2019-03-22T09:29:51.772Z,18.00
2019-03-22T09:30:51.836Z,11.20
2019-03-22T09:31:53.693Z,13.30
2019-03-22T09:32:51.854Z,11.60
2019-03-22T09:33:51.892Z,11.50
2019-03-22T09:34:51.952Z,13.70
2019-03-22T09:35:52.176Z,12.20
2019-03-22T09:36:52.015Z,12.20
2019-03-22T09:37:52.106Z,11.50
2019-03-22T09:38:52.092Z,13.60
2019-03-22T09:39:52.141Z,13.40
2019-03-22T09:40:52.173Z,15.60
2019-03-22T09:41:52.233Z,17.00
2019-03-22T09:45:53.502Z,12.30
2019-03-22T09:46:52.515Z,16.00
2019-03-22T09:49:52.550Z,15.70
2019-03-22T09:50:52.591Z,12.70
2019-03-22T09:51:55.104Z,11.60
2019-03-22T09:52:52.678Z,12.30
2019-03-22T09:53:52.719Z,11.50
2019-03-22T09:54:52.805Z,11.60
2019-03-22T09:55:52.840Z,14.40
2019-03-22T09:56:52.868Z,11.10
2019-03-22T09:57:52.954Z,12.00
2019-03-22T09:58:53.005Z,12.30
2019-03-22T09:59:52.976Z,15.80
2019-03-22T10:00:53.095Z,11.80
2019-03-22T10:01:53.097Z,18.10
2019-03-22T10:02:53.109Z,13.40
2019-03-22T10:03:53.148Z,14.00
2019-03-22T10:04:53.212Z,12.70
2019-03-22T10:05:53.271Z,12.20
2019-03-22T10:06:53.304Z,16.20
2019-03-22T10:07:53.323Z,13.00
2019-03-22T10:08:53.370Z,12.30
2019-03-22T10:09:53.412Z,16.30
2019-03-22T10:12:21.317Z,25.50
2019-03-22T10:13:21.376Z,14.20
2019-03-22T10:14:21.608Z,16.60
2019-03-22T10:15:21.469Z,15.00
2019-03-22T10:16:21.543Z,12.50
2019-03-22T10:17:21.740Z,14.20
2019-03-22T10:18:21.586Z,12.70
2019-03-22T10:23:05.157Z,12.70
2019-03-22T10:24:04.491Z,12.90
2019-03-22T10:25:05.001Z,12.50
2019-03-22T10:26:04.655Z,16.90
2019-03-22T10:27:05.335Z,12.60
2019-03-22T10:28:04.706Z,17.90
2019-03-22T10:29:06.871Z,12.70
2019-03-22T10:30:04.755Z,12.90
2019-03-22T10:31:04.836Z,12.60
2019-03-22T10:32:04.920Z,15.00
2019-03-22T10:33:04.891Z,13.30
2019-03-22T10:34:04.938Z,14.10
2019-03-22T10:35:05.013Z,12.30
2019-03-22T10:36:05.029Z,12.60
2019-03-22T10:37:05.074Z,13.10
2019-03-22T10:38:15.346Z,12.80
2019-03-22T10:39:05.171Z,14.00
2019-03-22T10:40:05.284Z,14.50
2019-03-22T10:41:05.267Z,13.10
2019-03-22T10:42:05.308Z,13.20
2019-03-22T10:43:05.371Z,13.90
2019-03-22T10:44:05.411Z,14.30
2019-03-22T10:45:05.478Z,12.10
2019-03-22T10:46:07.833Z,12.80
2019-03-22T10:47:05.544Z,13.10
2019-03-22T10:48:05.594Z,13.00
2019-03-22T10:49:05.663Z,12.10
2019-03-22T10:50:05.782Z,14.70
2019-03-22T10:51:05.734Z,16.80
2019-03-22T10:52:05.791Z,14.60
2019-03-22T10:53:05.847Z,18.50
2019-03-22T10:54:05.925Z,18.10
2019-03-22T10:55:23.196Z,13.40
2019-03-22T10:56:05.972Z,16.80
2019-03-22T10:57:06.019Z,15.00
2019-03-22T10:58:19.866Z,13.40
2019-03-22T10:59:06.118Z,13.80
2019-03-22T11:00:06.164Z,13.70
2019-03-22T11:01:08.273Z,14.00
2019-03-22T11:02:07.839Z,18.00
2019-03-22T11:03:06.311Z,14.60
2019-03-22T11:05:06.405Z,16.00
2019-03-22T11:06:06.453Z,15.60
2019-03-22T11:07:06.831Z,14.50
2019-03-22T11:08:06.554Z,16.00
2019-03-22T11:09:06.598Z,14.20
2019-03-22T11:10:06.649Z,14.60
2019-03-22T11:11:06.698Z,15.30
2019-03-22T11:12:12.189Z,14.40
2019-03-22T11:13:06.794Z,14.20
2019-03-22T11:14:06.841Z,14.00
2019-03-22T11:15:06.891Z,14.50
2019-03-22T11:16:06.939Z,14.40
2019-03-22T11:17:06.991Z,13.50
2019-03-22T11:18:07.039Z,14.70
2019-03-22T11:19:07.086Z,15.60
2019-03-22T11:20:07.362Z,17.60
2019-03-22T11:21:07.182Z,15.60
2019-03-22T11:22:07.562Z,15.70
2019-03-22T11:23:07.302Z,15.30
2019-03-22T11:24:07.330Z,16.90
2019-03-22T11:25:07.403Z,16.50
2019-03-22T11:26:07.428Z,17.60
2019-03-22T11:27:07.478Z,15.60
2019-03-22T11:28:07.528Z,15.60
2019-03-22T11:29:07.577Z,15.10
2019-03-22T11:30:07.626Z,15.20
2019-03-22T11:31:07.676Z,14.60
2019-03-22T11:32:12.607Z,15.30
2019-03-22T11:33:07.774Z,15.20
2019-03-22T11:34:07.828Z,15.30
2019-03-22T11:35:07.876Z,14.50
2019-03-22T11:36:07.926Z,15.00
2019-03-22T11:37:07.974Z,16.80
2019-03-22T11:38:08.027Z,15.20
2019-03-22T11:39:15.475Z,15.20
2019-03-22T11:40:08.125Z,14.60
2019-03-22T11:41:08.175Z,15.60
2019-03-22T11:42:08.223Z,15.20
2019-03-22T11:43:09.108Z,15.60
2019-03-22T11:44:08.325Z,15.40
2019-03-22T11:45:08.372Z,15.80
2019-03-22T11:46:08.425Z,13.40
2019-03-22T11:47:08.473Z,14.70
2019-03-22T11:48:08.522Z,13.80
2019-03-22T11:49:08.581Z,14.80
2019-03-22T11:50:08.621Z,15.30
2019-03-22T11:51:08.671Z,15.10
2019-03-22T11:52:08.725Z,14.70
2019-03-22T11:53:08.771Z,15.00
2019-03-22T11:54:08.820Z,15.20
2019-03-22T11:55:08.870Z,15.40
2019-03-22T11:56:09.507Z,15.30
2019-03-22T11:57:08.970Z,13.70
2019-03-22T11:58:09.030Z,13.80
2019-03-22T11:59:09.069Z,14.20
2019-03-22T12:00:09.119Z,14.10
2019-03-22T12:01:19.023Z,13.50
2019-03-22T12:02:09.227Z,15.60
2019-03-22T12:03:09.268Z,14.90
2019-03-22T12:04:09.324Z,14.00
2019-03-22T12:05:09.371Z,14.20
2019-03-22T12:06:09.420Z,14.40
2019-03-22T12:07:09.473Z,14.60
2019-03-22T12:08:09.522Z,14.50
2019-03-22T12:09:09.573Z,14.50
2019-03-22T12:10:09.624Z,14.80
2019-03-22T12:11:09.676Z,13.80
2019-03-22T12:12:09.725Z,15.10
2019-03-22T12:13:09.776Z,14.40
2019-03-22T12:14:09.826Z,15.40
2019-03-22T12:15:09.876Z,14.60
2019-03-22T12:16:09.928Z,15.10
2019-03-22T12:17:09.981Z,15.60
2019-03-22T12:18:10.031Z,14.70
2019-03-22T12:19:10.080Z,15.80
2019-03-22T12:20:10.131Z,13.80
2019-03-22T12:21:10.181Z,14.20
2019-03-22T12:22:10.233Z,15.00
2019-03-22T12:23:10.284Z,14.80
2019-03-22T12:24:10.338Z,15.70
2019-03-22T12:25:10.384Z,13.30
2019-03-22T12:26:10.435Z,13.50
2019-03-22T12:27:10.486Z,13.30
2019-03-22T12:28:10.537Z,13.60
2019-03-22T12:29:10.638Z,13.80
2019-03-22T12:30:10.637Z,14.10
2019-03-22T12:31:10.688Z,12.60
2019-03-22T12:32:10.742Z,12.60
2019-03-22T12:33:10.790Z,13.60
2019-03-22T12:34:10.843Z,13.40
2019-03-22T12:35:10.892Z,12.70
2019-03-22T12:36:10.946Z,12.70
2019-03-22T12:37:10.993Z,12.80
2019-03-22T12:38:11.048Z,13.50
2019-03-22T12:39:11.096Z,13.50
2019-03-22T12:40:11.147Z,14.40
2019-03-22T12:41:11.197Z,13.00
2019-03-22T12:42:11.248Z,12.70
2019-03-22T12:43:11.300Z,12.40
2019-03-22T12:44:11.350Z,13.60
2019-03-22T12:45:11.400Z,13.00
2019-03-22T12:46:11.452Z,12.20
2019-03-22T12:47:11.503Z,13.40
2019-03-22T12:48:11.554Z,12.70
2019-03-22T12:49:11.605Z,13.50
2019-03-22T12:50:11.655Z,13.50
2019-03-22T12:51:11.708Z,12.30
2019-03-22T12:52:11.762Z,13.30
2019-03-22T12:53:11.809Z,13.80
2019-03-22T12:54:11.860Z,13.20
2019-03-22T12:55:11.913Z,13.10
2019-03-22T12:56:11.963Z,14.20
2019-03-22T12:57:12.014Z,13.60
2019-03-22T12:58:12.067Z,12.20
2019-03-22T12:59:12.119Z,12.60
2019-03-22T13:00:12.167Z,12.50
2019-03-22T13:01:12.218Z,12.80
2019-03-22T13:02:12.269Z,12.60
2019-03-22T13:03:12.319Z,12.20
2019-03-22T13:04:12.373Z,13.40
2019-03-22T13:05:12.422Z,11.80
2019-03-22T13:06:12.474Z,12.70
2019-03-22T13:07:12.526Z,11.60
2019-03-22T13:08:12.582Z,11.70
2019-03-22T13:09:12.627Z,13.80
2019-03-22T13:10:12.678Z,13.80
2019-03-22T13:11:12.731Z,12.70
2019-03-22T13:12:12.783Z,14.60
2019-03-22T13:13:12.832Z,13.50
2019-03-22T13:14:12.883Z,13.80
2019-03-22T13:15:12.934Z,13.60